Time;durP1;ratioP1;P1;durP2;ratioP2;P2;SDS_P1;SDS_P2;PMS_P1;PMS_P2;Temp;Humidity;BMP_temperature;BMP_pressure;BME280_temperature;BME280_humidity;BME280_pressure;Samples;Min_cycle;Max_cycle;Signal;HPM_P1;HPM_P2
2021/08/03 00:00:09;;;;;;;12.07;9.45;;;;;;;19.81;77.63;98811.91;5109557;28;20040;-78
2021/08/03 00:02:44;;;;;;;13.38;8.82;;;;;;;19.83;77.73;98815.31;5110269;28;20102;-78
2021/08/03 00:05:15;;;;;;;13.73;8.55;;;;;;;19.76;77.76;98803.44;5109697;28;20463;-78
2021/08/03 00:07:42;;;;;;;11.05;7.85;;;;;;;19.77;77.61;98819.16;5110583;28;20071;-80
2021/08/03 00:10:08;;;;;;;8.95;7.72;;;;;;;19.77;77.76;98823.59;5091338;28;20507;-77
2021/08/03 00:12:35;;;;;;;11.98;7.25;;;;;;;19.73;77.77;98817.69;5091774;28;20040;-79
2021/08/03 00:15:02;;;;;;;10.30;7.07;;;;;;;19.62;77.56;98814.84;5074932;28;20078;-79
2021/08/03 00:17:28;;;;;;;8.85;6.75;;;;;;;19.64;77.35;98826.97;5075714;28;20039;-77
2021/08/03 00:19:54;;;;;;;10.00;6.70;;;;;;;19.71;77.20;98852.06;5075166;28;20085;-81
2021/08/03 00:22:24;;;;;;;10.00;7.00;;;;;;;19.65;77.14;98838.41;5074897;28;20197;-79
2021/08/03 00:24:51;;;;;;;11.20;6.65;;;;;;;19.65;77.05;98848.97;5091511;28;20126;-79
2021/08/03 00:27:17;;;;;;;12.00;6.10;;;;;;;19.55;77.41;98843.41;5083072;27;20050;-79
2021/08/03 00:29:44;;;;;;;7.13;6.18;;;;;;;19.56;76.95;98845.94;5114386;27;20039;-76
2021/08/03 00:32:10;;;;;;;9.30;5.97;;;;;;;19.33;77.03;98822.75;5131540;27;20065;-77
2021/08/03 00:34:37;;;;;;;9.38;5.68;;;;;;;19.48;77.05;98855.25;5130909;27;20618;-77
2021/08/03 00:37:09;;;;;;;8.95;5.40;;;;;;;19.45;76.97;98856.31;5095836;27;20058;-79
2021/08/03 00:39:37;;;;;;;10.18;5.38;;;;;;;19.33;77.06;98849.13;5113059;27;20039;-78
2021/08/03 00:42:06;;;;;;;12.05;5.72;;;;;;;19.37;76.97;98855.91;5095088;28;20074;-76
2021/08/03 00:44:49;;;;;;;8.32;5.78;;;;;;;19.34;76.88;98864.00;5109903;28;20039;-78
2021/08/03 00:47:26;;;;;;;7.68;4.78;;;;;;;19.28;77.00;98854.69;5092462;28;20047;-79
2021/08/03 00:49:59;;;;;;;7.25;5.50;;;;;;;19.27;76.78;98864.38;5076391;28;20424;-77
2021/08/03 00:52:28;;;;;;;10.95;5.18;;;;;;;19.24;77.02;98861.06;5092874;28;20524;-77
2021/08/03 00:54:54;;;;;;;7.93;5.20;;;;;;;19.10;76.72;98840.78;5093007;28;20051;-78
2021/08/03 00:57:21;;;;;;;9.55;5.07;;;;;;;19.05;76.98;98842.88;5058517;28;20043;-79
2021/08/03 00:59:48;;;;;;;7.70;5.22;;;;;;;19.05;76.81;98845.50;5075424;28;20104;-79
2021/08/03 01:02:18;;;;;;;7.67;5.10;;;;;;;18.98;76.70;98839.72;5059365;28;20090;-80
2021/08/03 01:04:45;;;;;;;6.57;5.03;;;;;;;19.01;76.53;98857.19;5104347;28;20341;-78
2021/08/03 01:07:39;;;;;;;7.88;5.43;;;;;;;19.04;76.71;98880.72;5129680;28;20011;-78
2021/08/03 01:10:35;;;;;;;11.98;5.13;;;;;;;19.01;76.94;98878.25;5093674;28;20578;-78
2021/08/03 01:13:11;;;;;;;12.48;5.55;;;;;;;18.94;76.90;98883.00;5075430;28;20079;-78
2021/08/03 01:16:04;;;;;;;12.95;5.63;;;;;;;18.92;77.01;98898.91;5060014;28;20040;-78
2021/08/03 01:18:38;;;;;;;12.98;5.53;;;;;;;18.79;77.14;98879.47;5093806;28;20089;-80
2021/08/03 01:21:29;;;;;;;13.18;5.47;;;;;;;18.84;76.92;98897.66;5093392;28;20723;-77
2021/08/03 01:24:16;;;;;;;8.90;5.20;;;;;;;18.80;77.12;98894.34;5086415;28;20047;-79
2021/08/03 01:26:54;;;;;;;13.27;5.22;;;;;;;18.76;77.14;98898.94;5095244;28;20059;-78
2021/08/03 01:29:24;;;;;;;17.23;5.65;;;;;;;18.71;77.55;98900.13;5114204;28;20035;-77
2021/08/03 01:31:54;;;;;;;12.05;5.68;;;;;;;18.64;77.13;98899.63;5095664;28;20043;-78
2021/08/03 01:34:24;;;;;;;9.00;4.78;;;;;;;18.58;77.26;98890.31;5096258;28;20047;-77
2021/08/03 01:36:56;;;;;;;9.57;5.05;;;;;;;18.61;77.36;98892.78;5095772;28;20539;-77
2021/08/03 01:39:34;;;;;;;9.45;4.53;;;;;;;18.65;77.43;98901.34;5078968;28;20031;-79
2021/08/03 01:42:02;;;;;;;9.75;5.07;;;;;;;18.57;77.38;98901.78;5078074;28;20054;-79
2021/08/03 01:44:33;;;;;;;9.15;5.00;;;;;;;18.52;77.29;98880.97;5061179;28;20527;-80
2021/08/03 01:47:01;;;;;;;13.43;5.38;;;;;;;18.55;77.30;98906.28;5077634;28;20089;-81
2021/08/03 01:49:28;;;;;;;11.90;5.15;;;;;;;18.48;77.44;98904.91;5094002;28;20140;-78
2021/08/03 01:51:58;;;;;;;10.07;5.00;;;;;;;18.43;77.40;98910.44;5095028;28;20534;-80
2021/08/03 01:54:25;;;;;;;10.85;5.10;;;;;;;18.46;77.57;98915.53;5081613;28;20131;-76
2021/08/03 01:56:53;;;;;;;9.48;5.03;;;;;;;18.52;77.84;98923.13;5058207;28;20054;-79
2021/08/03 01:59:22;;;;;;;7.38;5.07;;;;;;;18.50;77.73;98922.34;5075368;28;20040;-79
2021/08/03 02:01:52;;;;;;;12.68;5.30;;;;;;;18.40;77.44;98907.13;5093968;28;20499;-81
2021/08/03 02:04:20;;;;;;;9.88;5.50;;;;;;;18.45;77.61;98911.22;5075150;28;20449;-79
2021/08/03 02:06:47;;;;;;;11.95;4.90;;;;;;;18.51;77.67;98917.91;5058300;28;20066;-78
2021/08/03 02:09:17;;;;;;;8.15;4.80;;;;;;;18.50;77.51;98917.06;5058056;28;20500;-78
2021/08/03 02:11:46;;;;;;;11.63;4.78;;;;;;;18.55;77.64;98929.13;5092889;28;20072;-79
2021/08/03 02:14:13;;;;;;;8.88;4.63;;;;;;;18.50;77.60;98934.66;5073209;28;20043;-80
2021/08/03 02:17:03;;;;;;;8.40;5.60;;;;;;;18.48;77.65;98931.25;5068873;28;20054;-77
2021/08/03 02:19:38;;;;;;;7.88;5.20;;;;;;;18.52;77.56;98936.28;5072883;28;20505;-80
2021/08/03 02:22:06;;;;;;;10.52;5.28;;;;;;;18.38;77.64;98925.63;5073132;28;20044;-77
2021/08/03 02:24:36;;;;;;;9.52;5.70;;;;;;;18.49;77.55;98949.63;5073467;28;20552;-77
2021/08/03 02:27:05;;;;;;;7.47;4.88;;;;;;;18.55;77.65;98956.31;5071679;28;20123;-79
2021/08/03 02:29:36;;;;;;;7.78;5.03;;;;;;;18.50;77.57;98942.56;5091975;28;20093;-78
2021/08/03 02:32:20;;;;;;;8.05;4.68;;;;;;;18.56;77.38;98944.00;5074081;28;20044;-78
2021/08/03 02:35:04;;;;;;;9.98;4.95;;;;;;;18.52;77.41;98951.22;5039937;28;20521;-78
2021/08/03 02:37:33;;;;;;;7.97;4.50;;;;;;;18.54;77.31;98965.16;5073095;28;20048;-79
2021/08/03 02:40:05;;;;;;;8.60;4.75;;;;;;;18.59;77.31;98964.91;5073274;28;20124;-77
2021/08/03 02:42:44;;;;;;;7.68;5.38;;;;;;;18.52;77.18;98957.34;5072667;28;20074;-78
2021/08/03 02:45:12;;;;;;;8.00;5.18;;;;;;;18.60;77.24;98964.81;5073954;28;20501;-78
2021/08/03 02:47:48;;;;;;;10.32;5.47;;;;;;;18.57;76.93;98956.22;5056521;28;20142;-76
2021/08/03 02:50:15;;;;;;;10.38;5.00;;;;;;;18.51;77.43;98952.16;5073371;28;20114;-77
2021/08/03 02:52:44;;;;;;;12.27;5.70;;;;;;;18.66;77.04;98969.72;5073226;28;20043;-77
2021/08/03 02:55:18;;;;;;;11.30;5.03;;;;;;;18.69;76.98;98970.50;5072349;28;20070;-79
2021/08/03 02:57:49;;;;;;;10.20;5.65;;;;;;;18.74;76.92;98976.38;5072695;28;20048;-76
2021/08/03 03:00:15;;;;;;;;;;;;;;;18.79;76.80;98976.97;5089613;28;20036;-77
2021/08/03 03:02:44;;;;;;;8.82;4.65;;;;;;;18.78;76.45;98972.63;5071999;28;19916;-77
2021/08/03 03:05:18;;;;;;;7.32;4.57;;;;;;;18.85;76.57;98989.81;5055753;28;20112;-78
2021/08/03 03:07:50;;;;;;;8.77;4.40;;;;;;;18.90;76.44;98986.91;5072313;28;20048;-78
2021/08/03 03:10:30;;;;;;;4.63;3.65;;;;;;;18.89;76.05;98993.13;5105229;28;20035;-78
2021/08/03 03:13:08;;;;;;;8.65;4.38;;;;;;;18.86;76.03;98985.38;5074266;28;20046;-78
2021/08/03 03:15:35;;;;;;;7.28;4.85;;;;;;;18.98;75.96;99008.44;5056173;28;20036;-79
2021/08/03 03:18:03;;;;;;;11.90;5.30;;;;;;;18.98;75.77;99004.97;5089524;28;20043;-80
2021/08/03 03:20:30;;;;;;;11.75;4.82;;;;;;;19.03;75.71;99013.47;5090255;28;20032;-79
2021/08/03 03:22:56;;;;;;;8.60;4.68;;;;;;;18.96;75.75;98995.34;5056140;28;20676;-78
2021/08/03 03:25:25;;;;;;;12.05;4.50;;;;;;;18.99;75.56;98998.75;5072020;28;20046;-78
2021/08/03 03:28:01;;;;;;;7.10;4.45;;;;;;;19.14;75.25;99013.69;5072426;28;20040;-78
2021/08/03 03:30:29;;;;;;;10.48;4.70;;;;;;;19.16;75.24;99014.47;5072126;28;20073;-77
2021/08/03 03:33:02;;;;;;;7.50;4.38;;;;;;;19.29;75.31;99021.69;5056440;28;20104;-78
2021/08/03 03:35:33;;;;;;;6.43;3.80;;;;;;;19.44;75.19;99031.34;5072365;28;20063;-78
2021/08/03 03:38:01;;;;;;;7.45;4.00;;;;;;;19.51;75.11;99022.13;5090459;28;20134;-78
2021/08/03 03:40:29;;;;;;;6.68;3.88;;;;;;;19.68;74.49;99038.75;5072094;28;20143;-79
2021/08/03 03:42:57;;;;;;;6.00;4.28;;;;;;;19.68;74.39;99036.13;5090464;28;20034;-77
2021/08/03 03:45:25;;;;;;;4.47;4.03;;;;;;;19.77;74.38;99051.41;5056258;28;20071;-77
2021/08/03 03:47:58;;;;;;;8.73;3.70;;;;;;;19.87;74.40;99059.63;5090140;28;20558;-80
2021/08/03 03:50:33;;;;;;;7.18;3.95;;;;;;;19.96;73.86;99063.56;5091709;28;20131;-80
2021/08/03 03:53:24;;;;;;;12.75;3.47;;;;;;;20.05;73.69;99056.88;5094659;28;20524;-77
2021/08/03 03:55:57;;;;;;;5.70;3.53;;;;;;;20.13;73.38;99062.53;5069728;28;20051;-77
2021/08/03 03:58:25;;;;;;;9.10;3.50;;;;;;;20.12;73.06;99034.44;5064955;28;20115;-77
2021/08/03 04:00:54;;;;;;;6.60;3.50;;;;;;;20.29;72.91;99054.53;5075859;28;20028;-80
2021/08/03 04:03:22;;;;;;;7.40;3.50;;;;;;;20.41;72.37;99066.97;5059356;28;20047;-78
2021/08/03 04:05:53;;;;;;;5.68;3.28;;;;;;;20.47;72.16;99045.47;5058061;28;20097;-77
2021/08/03 04:08:19;;;;;;;8.20;3.50;;;;;;;20.64;71.69;99058.59;5075148;28;20424;-80
2021/08/03 04:10:47;;;;;;;9.70;3.40;;;;;;;20.70;71.46;99053.75;5058066;28;20154;-80
2021/08/03 04:13:15;;;;;;;9.32;3.25;;;;;;;20.89;70.75;99087.84;5079081;28;20028;-78
2021/08/03 04:15:41;;;;;;;5.78;2.90;;;;;;;20.93;70.35;99059.41;5052076;28;20040;-80
2021/08/03 04:18:07;;;;;;;6.38;3.00;;;;;;;21.11;70.00;99053.88;5053627;28;20500;-79
2021/08/03 04:20:37;;;;;;;5.70;2.70;;;;;;;21.36;69.06;99075.16;5036468;28;20044;-77
2021/08/03 04:23:02;;;;;;;8.55;2.80;;;;;;;21.49;68.64;99079.66;5052102;28;20416;-82
2021/08/03 04:25:28;;;;;;;9.60;2.70;;;;;;;21.66;68.32;99087.38;5070278;28;20037;-80
2021/08/03 04:27:56;;;;;;;7.57;2.97;;;;;;;21.91;68.04;99088.38;5078613;28;20087;-81
2021/08/03 04:30:22;;;;;;;7.03;2.90;;;;;;;22.04;67.55;99077.81;5055665;28;20097;-80
2021/08/03 04:32:48;;;;;;;5.05;2.67;;;;;;;22.11;66.80;99070.28;5056256;28;20075;-78
2021/08/03 04:35:14;;;;;;;5.20;2.72;;;;;;;22.30;66.21;99083.09;5073004;28;20047;-79
2021/08/03 04:37:45;;;;;;;6.15;2.20;;;;;;;22.22;65.74;99065.06;5072260;28;20044;-79
2021/08/03 04:40:13;;;;;;;5.78;2.30;;;;;;;22.45;65.02;99075.91;5090824;28;20040;-78
2021/08/03 04:42:40;;;;;;;9.32;2.45;;;;;;;22.70;64.58;99090.97;5079512;28;20054;-80
2021/08/03 04:45:07;;;;;;;6.40;2.60;;;;;;;22.62;63.57;99056.19;5079553;28;20063;-77
2021/08/03 04:47:33;;;;;;;3.45;1.92;;;;;;;22.84;62.99;99079.34;5056033;28;20067;-80
2021/08/03 04:49:59;;;;;;;5.93;1.92;;;;;;;23.01;62.41;99101.19;5076792;28;20035;-78
2021/08/03 04:52:25;;;;;;;9.15;2.10;;;;;;;23.10;61.91;99102.31;5061290;28;20046;-78
2021/08/03 04:54:51;;;;;;;4.43;1.98;;;;;;;23.00;61.31;99083.56;5094722;28;20056;-78
2021/08/03 04:57:17;;;;;;;5.75;1.80;;;;;;;23.34;60.87;99096.22;5072350;28;20129;-80
2021/08/03 04:59:43;;;;;;;5.63;1.80;;;;;;;23.41;60.07;99098.31;5038211;28;20047;-80
2021/08/03 05:02:09;;;;;;;4.63;1.75;;;;;;;23.35;59.36;99105.88;5090125;28;20040;-78
2021/08/03 05:04:35;;;;;;;6.53;1.77;;;;;;;23.17;59.36;99100.94;5090180;28;20035;-80
2021/08/03 05:07:02;;;;;;;3.17;1.50;;;;;;;23.05;59.05;99105.31;5090824;28;20054;-78
2021/08/03 05:09:27;;;;;;;2.63;1.63;;;;;;;22.86;58.96;99090.69;5090465;28;20039;-81
2021/08/03 05:11:53;;;;;;;3.88;2.05;;;;;;;22.89;59.62;99102.91;5072377;28;20122;-78
2021/08/03 05:14:19;;;;;;;3.78;1.52;;;;;;;22.95;58.75;99096.31;5093992;28;20834;-79
2021/08/03 05:16:46;;;;;;;4.43;1.55;;;;;;;23.21;59.44;99107.72;5095224;28;20046;-79
2021/08/03 05:19:12;;;;;;;7.47;2.20;;;;;;;23.51;59.00;99114.41;5060193;28;20547;-78
2021/08/03 05:21:38;;;;;;;2.85;1.20;;;;;;;23.68;58.17;99101.69;5089254;28;20071;-80
2021/08/03 05:24:04;;;;;;;3.15;1.40;;;;;;;23.96;57.31;99134.97;5054654;28;20488;-81
2021/08/03 05:26:30;;;;;;;2.65;1.30;;;;;;;23.91;57.03;99119.38;5054747;28;20040;-79
2021/08/03 05:28:56;;;;;;;2.75;0.90;;;;;;;24.02;56.74;99133.72;5071693;28;20067;-79
2021/08/03 05:31:22;;;;;;;2.88;1.10;;;;;;;24.06;56.34;99111.25;5072442;28;20169;-79
2021/08/03 05:33:48;;;;;;;3.97;1.13;;;;;;;24.33;55.67;99126.91;5055745;28;20123;-80
2021/08/03 05:36:14;;;;;;;2.13;1.17;;;;;;;24.49;55.11;99107.97;5072885;28;20044;-82
2021/08/03 05:38:40;;;;;;;7.13;1.17;;;;;;;24.78;53.85;99112.81;5090919;28;20044;-79
2021/08/03 05:41:06;;;;;;;4.72;1.10;;;;;;;24.95;53.16;99110.63;5090990;28;20079;-79
2021/08/03 05:43:31;;;;;;;3.40;1.48;;;;;;;26.06;53.20;99110.50;5090408;28;20512;-82
2021/08/03 05:45:57;;;;;;;3.67;1.42;;;;;;;26.74;52.18;99104.72;5071208;28;20047;-80
2021/08/03 05:48:23;;;;;;;3.63;1.27;;;;;;;27.02;50.83;99113.88;5071663;28;20043;-78
2021/08/03 05:50:51;;;;;;;4.05;1.60;;;;;;;27.16;50.18;99104.59;5063367;28;20040;-82
2021/08/03 05:53:17;;;;;;;1.73;1.02;;;;;;;27.50;50.17;99098.06;5071905;28;20047;-80
2021/08/03 05:55:43;;;;;;;3.30;1.10;;;;;;;28.05;48.46;99108.16;5039007;28;20555;-79
2021/08/03 05:58:09;;;;;;;2.25;0.80;;;;;;;28.71;47.89;99109.13;5071434;28;20178;-80
2021/08/03 06:00:36;;;;;;;2.10;1.05;;;;;;;28.79;45.73;99097.75;5056115;28;20043;-80
2021/08/03 06:03:02;;;;;;;2.40;1.55;;;;;;;28.77;45.22;99113.09;5075226;28;20044;-79
2021/08/03 06:05:31;;;;;;;2.78;1.20;;;;;;;29.01;45.04;99119.75;5077453;28;20036;-79
2021/08/03 06:07:59;;;;;;;1.20;1.10;;;;;;;29.48;44.63;99132.16;5077006;28;20032;-78
2021/08/03 06:10:27;;;;;;;2.25;1.02;;;;;;;30.18;44.16;99133.28;5061041;28;20455;-80
2021/08/03 06:12:55;;;;;;;1.95;1.20;;;;;;;31.55;42.26;99134.28;5076208;28;20060;-83
2021/08/03 06:15:23;;;;;;;2.20;1.15;;;;;;;32.64;39.25;99121.63;5076639;28;20340;-80
2021/08/03 06:18:03;;;;;;;2.78;1.33;;;;;;;32.22;37.07;99142.38;5058796;28;20040;-79
2021/08/03 06:20:31;;;;;;;2.95;1.20;;;;;;;31.37;38.53;99147.84;5076408;28;20040;-81
2021/08/03 06:22:58;;;;;;;3.72;1.35;;;;;;;31.43;38.62;99143.66;5059550;28;20126;-80
2021/08/03 06:25:24;;;;;;;4.60;1.40;;;;;;;31.27;39.41;99149.84;5043481;28;20040;-80
2021/08/03 06:27:51;;;;;;;1.88;1.15;;;;;;;31.81;37.78;99168.28;5094480;28;20094;-80
2021/08/03 06:30:18;;;;;;;5.22;1.48;;;;;;;31.36;37.30;99148.00;5076933;28;20047;-79
2021/08/03 06:32:48;;;;;;;7.60;1.23;;;;;;;31.06;37.65;99155.59;5058784;28;20048;-78
2021/08/03 06:35:15;;;;;;;2.50;1.50;;;;;;;30.51;37.90;99171.91;5060165;28;20071;-80
2021/08/03 06:37:41;;;;;;;2.83;1.10;;;;;;;30.10;38.10;99168.94;5077494;28;20104;-79
2021/08/03 06:40:09;;;;;;;3.67;1.10;;;;;;;29.81;38.28;99151.22;5075293;28;20072;-80
2021/08/03 06:42:44;;;;;;;2.30;1.00;;;;;;;29.72;38.17;99189.69;5075628;28;20645;-78
2021/08/03 06:45:16;;;;;;;2.80;1.17;;;;;;;29.25;38.28;99194.16;5074424;28;20409;-80
2021/08/03 06:48:09;;;;;;;2.90;1.17;;;;;;;28.71;39.27;99194.75;5092358;28;20730;-80
2021/08/03 06:50:40;;;;;;;1.05;1.00;;;;;;;28.36;39.87;99198.09;5074528;28;20051;-79
2021/08/03 06:53:09;;;;;;;4.15;1.63;;;;;;;27.94;40.47;99189.34;5076000;28;20040;-81
2021/08/03 06:55:41;;;;;;;3.13;1.17;;;;;;;29.23;41.14;99200.69;5112789;28;20051;-80
2021/08/03 06:58:19;;;;;;;3.08;1.13;;;;;;;31.58;37.26;99161.81;5078194;28;20040;-79
2021/08/03 07:00:48;;;;;;;1.60;1.05;;;;;;;32.84;35.36;99184.88;5095715;28;20473;-81
2021/08/03 07:03:21;;;;;;;1.65;0.90;;;;;;;31.94;33.95;99172.31;5113985;28;20039;-78
2021/08/03 07:05:53;;;;;;;1.80;0.80;;;;;;;30.54;35.05;99184.19;5112768;28;20051;-79
2021/08/03 07:08:20;;;;;;;1.08;0.80;;;;;;;29.51;36.46;99190.81;5096404;28;20130;-81
2021/08/03 07:10:50;;;;;;;3.70;0.98;;;;;;;28.65;37.19;99205.22;5095767;28;20091;-79
2021/08/03 07:13:18;;;;;;;1.42;0.75;;;;;;;27.73;38.27;99221.56;5095364;28;20762;-78
2021/08/03 07:15:44;;;;;;;1.42;0.80;;;;;;;26.90;39.60;99219.00;5075104;28;20048;-80
2021/08/03 07:18:11;;;;;;;2.63;0.80;;;;;;;26.41;41.08;99224.88;5076287;28;20062;-78
2021/08/03 07:20:41;;;;;;;5.22;1.17;;;;;;;26.10;41.78;99224.75;5087568;28;20061;-81
2021/08/03 07:23:12;;;;;;;1.40;1.23;;;;;;;26.09;42.83;99233.72;5087076;28;20036;-80
2021/08/03 07:25:38;;;;;;;3.10;1.40;;;;;;;26.30;42.44;99216.94;5090751;28;20040;-81
2021/08/03 07:28:04;;;;;;;2.08;0.90;;;;;;;26.36;42.17;99232.44;5068115;28;20039;-81
2021/08/03 07:30:30;;;;;;;2.45;1.10;;;;;;;26.17;42.56;99227.78;5077130;28;20416;-79
2021/08/03 07:32:57;;;;;;;4.63;1.20;;;;;;;25.68;42.54;99222.00;5077786;28;20074;-78
2021/08/03 07:35:23;;;;;;;3.10;1.40;;;;;;;25.38;43.70;99226.94;5061163;28;20069;-80
2021/08/03 07:37:50;;;;;;;1.63;1.50;;;;;;;25.04;44.80;99237.63;5114515;28;20470;-76
2021/08/03 07:40:20;;;;;;;2.90;1.20;;;;;;;24.83;45.60;99232.16;5078837;28;20040;-76
2021/08/03 07:42:45;;;;;;;2.72;1.40;;;;;;;25.00;46.34;99232.66;5112836;28;20066;-78
2021/08/03 07:45:11;;;;;;;2.65;1.17;;;;;;;25.93;46.49;99235.97;5076468;28;20080;-77
2021/08/03 07:47:38;;;;;;;3.15;1.40;;;;;;;27.15;45.37;99223.03;5092401;28;20045;-77
2021/08/03 07:50:04;;;;;;;2.33;1.48;;;;;;;30.01;43.40;99232.38;5111286;28;20044;-75
2021/08/03 07:52:31;;;;;;;3.72;1.30;;;;;;;32.02;38.46;99214.50;5105913;28;20104;-76
2021/08/03 07:54:57;;;;;;;2.60;1.17;;;;;;;33.46;35.04;99215.63;5091614;28;20059;-75
2021/08/03 07:57:23;;;;;;;3.72;1.08;;;;;;;33.77;34.17;99211.22;5075143;28;20040;-76
2021/08/03 07:59:51;;;;;;;3.28;1.08;;;;;;;34.53;32.29;99205.94;5080916;28;20044;-77
2021/08/03 08:02:16;;;;;;;1.10;0.95;;;;;;;35.22;31.57;99205.84;5053488;28;20042;-76
2021/08/03 08:04:42;;;;;;;3.17;1.00;;;;;;;35.93;29.94;99183.56;5071214;28;20036;-77
2021/08/03 08:07:08;;;;;;;2.67;0.93;;;;;;;35.86;28.76;99182.69;5070906;28;20047;-79
2021/08/03 08:09:34;;;;;;;3.03;1.00;;;;;;;35.50;28.32;99207.88;5089405;28;20096;-76
2021/08/03 08:12:00;;;;;;;2.42;0.90;;;;;;;35.98;28.60;99196.53;5089161;28;20036;-75
2021/08/03 08:14:26;;;;;;;2.92;1.10;;;;;;;36.85;27.00;99197.22;5057620;28;20035;-77
2021/08/03 08:16:52;;;;;;;4.35;1.00;;;;;;;37.32;26.01;99196.63;5091484;28;20050;-79
2021/08/03 08:19:18;;;;;;;1.17;0.82;;;;;;;38.03;25.30;99192.66;5093313;28;20126;-75
2021/08/03 08:21:45;;;;;;;3.25;1.00;;;;;;;39.21;23.81;99198.31;5093424;28;20047;-76
2021/08/03 08:24:11;;;;;;;1.63;0.82;;;;;;;40.02;22.83;99187.00;5110494;28;20048;-77
2021/08/03 08:26:37;;;;;;;4.10;0.93;;;;;;;40.18;21.74;99169.25;5093719;28;20040;-76
2021/08/03 08:29:03;;;;;;;1.60;0.60;;;;;;;38.45;22.60;99197.88;5093011;28;20169;-78
2021/08/03 08:31:29;;;;;;;2.55;0.80;;;;;;;36.57;23.77;99200.78;5075419;28;20063;-77
2021/08/03 08:33:55;;;;;;;1.15;0.73;;;;;;;34.91;25.08;99201.50;5089383;28;20086;-77
2021/08/03 08:36:21;;;;;;;3.45;0.90;;;;;;;33.55;26.07;99192.16;5088922;28;20048;-75
2021/08/03 08:38:46;;;;;;;2.38;0.90;;;;;;;33.05;27.53;99200.44;5070979;28;20606;-76
2021/08/03 08:41:13;;;;;;;3.05;1.00;;;;;;;33.62;27.42;99192.28;5098641;28;20036;-77
2021/08/03 08:43:40;;;;;;;1.95;0.90;;;;;;;33.40;27.80;99208.22;5109557;28;20104;-77
2021/08/03 08:46:08;;;;;;;2.20;0.73;;;;;;;34.32;27.32;99193.13;5096579;28;20682;-74
2021/08/03 08:48:36;;;;;;;2.63;0.75;;;;;;;35.22;25.61;99204.00;5087569;28;20044;-75
2021/08/03 08:51:03;;;;;;;1.75;0.80;;;;;;;35.08;25.61;99188.66;5054886;28;20040;-77
2021/08/03 08:53:33;;;;;;;2.30;0.93;;;;;;;34.49;26.37;99195.69;5087460;28;20076;-77
2021/08/03 08:56:01;;;;;;;2.25;0.85;;;;;;;34.35;26.23;99213.50;5088631;28;20043;-76
2021/08/03 08:58:32;;;;;;;2.10;0.85;;;;;;;34.20;26.98;99205.38;5106475;28;20046;-75
2021/08/03 09:00:58;;;;;;;1.45;1.10;;;;;;;35.61;25.59;99207.41;5073784;28;20500;-76
2021/08/03 09:03:24;;;;;;;2.63;0.80;;;;;;;36.43;24.34;99190.88;5073027;28;20032;-76
2021/08/03 09:06:04;;;;;;;1.33;0.60;;;;;;;36.38;24.24;99204.16;5055356;28;20633;-77
2021/08/03 09:08:42;;;;;;;1.55;0.70;;;;;;;35.12;24.75;99209.69;5073027;28;20036;-76
2021/08/03 09:11:13;;;;;;;2.42;0.75;;;;;;;33.50;26.33;99226.88;5073645;28;20135;-76
2021/08/03 09:13:51;;;;;;;6.25;1.30;;;;;;;32.04;28.34;99242.94;5078744;28;20038;-76
2021/08/03 09:16:17;;;;;;;2.75;1.00;;;;;;;31.39;29.73;99231.00;5109701;28;20496;-77
2021/08/03 09:18:45;;;;;;;2.28;0.98;;;;;;;31.66;29.56;99237.94;5092127;28;20149;-76
2021/08/03 09:21:21;;;;;;;3.20;0.90;;;;;;;31.30;30.10;99231.94;5078658;28;20046;-76
2021/08/03 09:23:59;;;;;;;3.55;1.20;;;;;;;30.97;30.62;99247.91;5058599;28;20042;-75
2021/08/03 09:26:49;;;;;;;4.05;1.00;;;;;;;30.37;30.83;99250.31;5109943;28;20040;-77
2021/08/03 09:29:17;;;;;;;4.60;1.10;;;;;;;30.13;31.64;99248.22;5084482;28;20101;-75
2021/08/03 09:31:57;;;;;;;0.95;0.80;;;;;;;29.58;32.29;99253.50;5092678;28;20127;-75
2021/08/03 09:34:23;;;;;;;1.33;0.90;;;;;;;29.07;33.16;99244.16;5072795;28;20455;-77
2021/08/03 09:36:55;;;;;;;4.38;1.10;;;;;;;28.36;33.81;99243.56;5043770;28;20035;-75
2021/08/03 09:39:46;;;;;;;3.53;1.00;;;;;;;27.84;35.02;99251.81;5077628;28;20044;-76
2021/08/03 09:42:16;;;;;;;5.80;1.30;;;;;;;27.58;35.05;99257.69;5112939;28;20036;-76
2021/08/03 09:44:49;;;;;;;1.55;1.15;;;;;;;28.24;36.04;99249.06;5114474;28;20043;-76
2021/08/03 09:47:16;;;;;;;3.35;1.30;;;;;;;29.65;33.53;99248.41;5050060;28;20112;-76
2021/08/03 09:49:50;;;;;;;2.17;1.15;;;;;;;30.34;33.43;99272.91;5124201;28;20415;-76
2021/08/03 09:52:19;;;;;;;1.98;1.30;;;;;;;31.43;31.42;99253.00;5115660;28;20027;-77
2021/08/03 09:54:45;;;;;;;1.23;1.00;;;;;;;32.09;29.95;99247.81;5115785;28;20032;-78
2021/08/03 09:57:24;;;;;;;3.42;1.10;;;;;;;31.64;29.40;99255.25;5133079;28;20819;-76
2021/08/03 09:59:52;;;;;;;1.45;1.20;;;;;;;30.77;29.92;99250.78;5116639;28;20039;-78
2021/08/03 10:02:21;;;;;;;2.63;1.20;;;;;;;30.29;30.60;99264.50;5134575;28;20031;-76
2021/08/03 10:04:48;;;;;;;4.22;1.25;;;;;;;31.25;31.17;99262.81;5134747;27;20075;-77
2021/08/03 10:07:15;;;;;;;3.03;1.05;;;;;;;33.08;29.24;99253.16;5135452;28;20086;-76
2021/08/03 10:09:45;;;;;;;1.52;0.95;;;;;;;34.39;27.30;99248.06;5116414;28;20027;-77
2021/08/03 10:12:11;;;;;;;1.35;1.25;;;;;;;35.19;26.69;99236.81;5099208;28;20051;-77
2021/08/03 10:14:38;;;;;;;2.95;0.80;;;;;;;35.97;25.67;99230.88;5103642;28;20676;-78
2021/08/03 10:17:05;;;;;;;3.05;1.00;;;;;;;35.88;24.91;99223.88;5076476;28;20050;-77
2021/08/03 10:19:36;;;;;;;1.55;1.20;;;;;;;35.83;25.03;99226.34;5101971;28;20640;-76
2021/08/03 10:22:23;;;;;;;3.60;1.30;;;;;;;35.01;25.45;99247.16;5094486;28;20038;-78
2021/08/03 10:25:03;;;;;;;3.53;1.23;;;;;;;34.86;25.77;99247.97;5093714;28;20035;-76
2021/08/03 10:27:38;;;;;;;2.28;1.17;;;;;;;35.28;25.58;99251.91;5111949;28;20114;-76
2021/08/03 10:30:05;;;;;;;1.10;0.90;;;;;;;35.05;24.92;99264.69;5093481;28;20039;-77
2021/08/03 10:32:39;;;;;;;2.20;1.08;;;;;;;33.85;25.78;99248.94;5076447;28;20069;-75
2021/08/03 10:35:16;;;;;;;3.40;1.40;;;;;;;33.62;25.46;99249.75;5112186;28;20055;-77
2021/08/03 10:37:57;;;;;;;6.82;1.42;;;;;;;33.30;25.75;99253.41;5112363;28;20080;-76
2021/08/03 10:40:45;;;;;;;3.20;1.20;;;;;;;32.15;26.87;99256.03;5093333;28;20039;-77
2021/08/03 10:43:20;;;;;;;3.80;1.17;;;;;;;31.17;27.47;99268.19;5076796;28;20100;-79
2021/08/03 10:45:48;;;;;;;1.77;1.20;;;;;;;30.46;28.93;99276.19;5090107;28;20432;-77
2021/08/03 10:48:39;;;;;;;3.42;1.40;;;;;;;29.87;30.11;99273.94;5071944;28;20112;-78
2021/08/03 10:51:17;;;;;;;5.78;1.50;;;;;;;29.79;30.68;99273.00;5072464;28;20539;-76
2021/08/03 10:54:12;;;;;;;2.92;1.60;;;;;;;29.74;30.68;99271.63;5091492;28;20124;-77
2021/08/03 10:56:56;;;;;;;2.85;1.35;;;;;;;29.16;30.93;99280.75;5090238;28;20046;-75
2021/08/03 10:59:35;;;;;;;2.45;1.38;;;;;;;28.83;31.76;99273.09;5072181;28;20052;-78
2021/08/03 11:02:03;;;;;;;3.58;1.50;;;;;;;28.98;31.37;99273.47;5073120;28;20040;-77
2021/08/03 11:04:41;;;;;;;4.40;1.20;;;;;;;28.93;31.02;99280.28;5072559;28;20497;-78
2021/08/03 11:07:27;;;;;;;2.28;1.40;;;;;;;28.73;31.12;99282.97;5057330;28;20044;-77
2021/08/03 11:09:55;;;;;;;2.20;1.13;;;;;;;28.62;31.03;99288.44;5072658;28;20040;-78
2021/08/03 11:12:49;;;;;;;2.33;1.30;;;;;;;28.61;31.19;99284.09;5072320;28;20040;-76
2021/08/03 11:15:21;;;;;;;5.65;1.80;;;;;;;28.27;32.04;99277.34;5101278;28;20130;-78
2021/08/03 11:17:49;;;;;;;8.75;1.85;;;;;;;27.80;32.64;99265.47;5110917;28;20037;-76
2021/08/03 11:20:33;;;;;;;3.83;1.67;;;;;;;27.95;33.12;99279.25;5092310;28;20096;-76
2021/08/03 11:23:06;;;;;;;3.08;1.83;;;;;;;28.02;33.41;99289.41;5092139;28;20118;-78
2021/08/03 11:25:32;;;;;;;1.63;1.50;;;;;;;27.85;33.44;99293.59;5113606;28;20051;-76
2021/08/03 11:28:09;;;;;;;3.50;1.80;;;;;;;27.75;33.99;99294.44;5092983;28;20385;-79
2021/08/03 11:30:35;;;;;;;3.38;1.70;;;;;;;27.65;33.80;99294.41;5115923;28;20042;-76
2021/08/03 11:33:01;;;;;;;1.45;1.35;;;;;;;27.45;33.62;99296.13;5078458;28;20385;-77
2021/08/03 11:35:29;;;;;;;1.70;1.40;;;;;;;27.21;34.66;99297.28;5093224;28;20035;-77
2021/08/03 11:37:55;;;;;;;4.00;1.80;;;;;;;27.14;34.89;99285.47;5093611;28;20035;-77
2021/08/03 11:40:21;;;;;;;3.75;2.10;;;;;;;27.22;34.75;99300.81;5093551;28;20051;-75
2021/08/03 11:42:48;;;;;;;2.55;1.70;;;;;;;27.41;34.75;99292.03;5093418;28;20036;-75
2021/08/03 11:45:21;;;;;;;3.22;2.05;;;;;;;27.72;34.64;99288.50;5111860;28;20089;-75